Terminal Aerodrome Forecast
Issued by NWS

Current Version | Previous Version | Text Only | Print | Product List | Glossary Off
Versions: 1 2 3 4 5 6 7 8 9 10 11 12 13 14 15 16 17 18 19 20 21 22 23 24 25 26

000
FTUS41 KILN 300258 AAA
TAFLUK
TAF AMD
KLUK 300258Z 3003/3024 05007KT P6SM FEW120 OVC140
     FM301400 08007KT 4SM -SHRA BR OVC025
     FM301600 09009KT 2SM -SHRA BR OVC020
     FM301800 11009G18KT 2SM -SHRA BR OVC015=

USA.gov is the U.S. government's official web portal to all federal, state and local government web resources and services.